Delta Virtual Airport Information Service

Moscow Sheremetyevo International Airport

ICAO: UUEE Country: Russia
Latitude: 55.9726 Longitude: 37.4146
Latest Arrival : DAC7192 (URSS-UUEE) Latest Departure : DAC1523 (UUEE-KBOS)


WX CaptureLIVE
Data provided by noaa.gov | Fetched at 01:17:30

METAR : UUEE 060600Z 24004MPS CAVOK 24/16 Q1010 R24L/CLRD62 NOSIG

TAF : UUEE 060453Z 0606/0706 23005G10MPS 9999 SCT030 TX28/0612Z TN18/0701Z BECMG 0616/0618 15003MPS


Runway Data for UUEE
Data provided by openaviationdata.com

Runway ID Mag Var Hdg Length Elevation Surface ILS Freq ILS Id ILS Slope
07L 9 65° 11643 ft 630 ft Concrete 108.1 IMR 2
07R 9 66° 11973 ft 630 ft Concrete 109.1 INL 2
25L 9 246° 11973 ft 630 ft Concrete 110.5 IBW 2
25R 9 245° 11643 ft 630 ft Concrete 111.3 IAD 2

Moscow Sheremetyevo International Airport, Russia
Use only for reference purposes



Not for navigational purposes.